Time;durP1;ratioP1;P1;durP2;ratioP2;P2;SDS_P1;SDS_P2;PMS_P1;PMS_P2;Temp;Humidity;BMP_temperature;BMP_pressure;BME280_temperature;BME280_humidity;BME280_pressure;Samples;Min_cycle;Max_cycle;Signal;HPM_P1;HPM_P2
2022/02/20 00:00:07;;;;;;;7.72;5.38;;;;;;;10.67;67.83;101209.91;5030225;27;102284;-51
2022/02/20 00:02:34;;;;;;;8.90;5.68;;;;;;;10.68;67.39;101206.13;5027348;27;104708;-51
2022/02/20 00:05:01;;;;;;;7.55;5.53;;;;;;;10.67;67.51;101196.31;5024594;27;102378;-51
2022/02/20 00:07:27;;;;;;;12.40;5.80;;;;;;;10.68;67.47;101197.16;5037939;27;102509;-52
2022/02/20 00:09:58;;;;;;;8.45;6.13;;;;;;;10.66;67.48;101197.41;5052470;27;102602;-51
2022/02/20 00:12:24;;;;;;;7.45;5.60;;;;;;;10.67;67.59;101187.31;5043684;27;104023;-51
2022/02/20 00:14:51;;;;;;;8.10;5.85;;;;;;;10.67;67.92;101193.59;5037550;27;102268;-52
2022/02/20 00:17:19;;;;;;;8.30;6.05;;;;;;;10.67;67.39;101193.59;5034563;27;103027;-52
2022/02/20 00:19:46;;;;;;;10.27;6.90;;;;;;;10.66;67.62;101202.84;5044068;27;102649;-51
2022/02/20 00:22:12;;;;;;;9.82;6.00;;;;;;;10.67;67.54;101200.94;5033769;27;103987;-52
2022/02/20 00:24:39;;;;;;;9.02;5.82;;;;;;;10.67;67.24;101196.31;5041067;27;102322;-51
2022/02/20 00:27:05;;;;;;;9.60;5.68;;;;;;;10.67;67.80;101196.31;5025158;27;102742;-51
2022/02/20 00:29:32;;;;;;;8.75;5.60;;;;;;;10.67;67.79;101193.59;5027600;27;102389;-52
2022/02/20 00:31:59;;;;;;;7.28;5.60;;;;;;;10.67;67.48;101199.03;5027912;27;104062;-52
2022/02/20 00:34:27;;;;;;;8.82;5.55;;;;;;;10.68;67.77;101191.72;5031080;27;102454;-52
2022/02/20 00:36:53;;;;;;;9.32;5.65;;;;;;;10.66;67.87;101202.84;5022544;27;102213;-52
2022/02/20 00:39:19;;;;;;;6.55;5.43;;;;;;;10.67;67.41;101209.09;5024505;27;102694;-52
2022/02/20 00:41:46;;;;;;;8.88;6.43;;;;;;;10.66;67.85;101219.19;5036868;27;104503;-51
2022/02/20 00:44:12;;;;;;;10.57;6.05;;;;;;;10.66;67.50;101224.63;5029355;27;102936;-51
2022/02/20 00:46:38;;;;;;;8.05;6.10;;;;;;;10.67;67.47;101215.38;5025588;27;102238;-51
2022/02/20 00:49:05;;;;;;;9.55;6.20;;;;;;;10.66;68.10;101216.44;5020114;27;103644;-52
2022/02/20 00:51:35;;;;;;;9.15;6.15;;;;;;;10.66;67.40;101213.72;5024886;27;104187;-51
2022/02/20 00:54:03;;;;;;;12.18;6.32;;;;;;;10.66;67.46;101213.72;5037408;27;102530;-51
2022/02/20 00:56:29;;;;;;;10.13;5.97;;;;;;;10.66;67.27;101219.19;5024624;27;102779;-51
2022/02/20 00:58:55;;;;;;;9.20;6.25;;;;;;;10.66;67.72;101219.19;5029189;27;102601;-51
2022/02/20 01:01:21;;;;;;;8.65;5.85;;;;;;;10.67;67.48;101225.44;5026202;27;104594;-52
2022/02/20 01:03:47;;;;;;;8.85;6.40;;;;;;;10.67;67.53;101220.81;5039553;27;102556;-51
2022/02/20 01:06:14;;;;;;;9.30;6.47;;;;;;;10.67;67.78;101220.00;5034327;27;102673;-51
2022/02/20 01:08:41;;;;;;;9.07;6.50;;;;;;;10.67;67.68;101220.81;5039182;27;102240;-51
2022/02/20 01:11:07;;;;;;;9.65;6.25;;;;;;;10.66;67.35;101219.19;5038260;27;103612;-52
2022/02/20 01:13:34;;;;;;;8.73;6.03;;;;;;;10.66;67.51;101227.34;5036292;27;102301;-51
2022/02/20 01:16:00;;;;;;;9.43;6.40;;;;;;;10.66;67.81;101230.06;5024873;27;102171;-52
2022/02/20 01:18:27;;;;;;;8.30;5.90;;;;;;;10.66;67.47;101226.53;5028368;27;102323;-51
2022/02/20 01:20:53;;;;;;;8.43;6.20;;;;;;;10.65;67.94;101228.44;5027997;27;104017;-51
2022/02/20 01:23:20;;;;;;;9.40;5.97;;;;;;;10.65;67.33;101239.31;5027840;27;102704;-51
2022/02/20 01:25:48;;;;;;;11.82;6.47;;;;;;;10.66;67.42;101240.13;5037751;27;103051;-51
2022/02/20 01:28:14;;;;;;;10.63;7.15;;;;;;;10.66;67.92;101246.41;5053894;27;102528;-52
2022/02/20 01:30:40;;;;;;;8.50;6.65;;;;;;;10.65;67.79;101236.59;5055043;27;103972;-51
2022/02/20 01:33:06;;;;;;;9.32;6.53;;;;;;;10.65;68.06;101233.88;5046702;27;102200;-51
2022/02/20 01:35:33;;;;;;;8.38;6.43;;;;;;;10.66;68.12;101237.41;5052152;27;102311;-51
2022/02/20 01:37:59;;;;;;;9.35;6.45;;;;;;;10.65;67.78;101242.03;5044785;27;102391;-52
2022/02/20 01:40:27;;;;;;;8.13;6.15;;;;;;;10.65;67.57;101233.88;5045840;27;103912;-52
2022/02/20 01:42:56;;;;;;;9.13;6.13;;;;;;;10.66;67.89;101238.22;5044366;27;102189;-51
2022/02/20 01:45:22;;;;;;;8.52;6.10;;;;;;;10.65;67.46;101243.94;5031639;27;102727;-52
2022/02/20 01:47:50;;;;;;;9.40;6.82;;;;;;;10.65;67.92;101247.47;5043666;27;102210;-51
2022/02/20 01:50:17;;;;;;;12.23;6.90;;;;;;;10.65;67.83;101249.38;5033179;27;103928;-51
2022/02/20 01:52:46;;;;;;;8.73;6.60;;;;;;;10.65;68.16;101244.75;5027678;27;102847;-52
2022/02/20 01:55:13;;;;;;;8.73;6.72;;;;;;;10.65;67.68;101255.66;5043831;27;102419;-52
2022/02/20 01:57:42;;;;;;;9.68;6.38;;;;;;;10.65;67.78;101250.22;5050338;27;102026;-51
2022/02/20 02:00:13;;;;;;;8.70;6.30;;;;;;;10.64;68.08;101254.00;5052329;27;103901;-52
2022/02/20 02:02:39;;;;;;;9.52;6.63;;;;;;;10.64;67.83;101256.75;5036553;27;102194;-52
2022/02/20 02:05:06;;;;;;;8.35;6.90;;;;;;;10.65;67.43;101261.09;5027222;27;102262;-51
2022/02/20 02:07:33;;;;;;;8.98;6.32;;;;;;;10.64;67.43;101259.47;5028496;27;102330;-51
2022/02/20 02:10:00;;;;;;;10.13;6.53;;;;;;;10.65;67.23;101266.53;5047911;27;103962;-52
2022/02/20 02:12:26;;;;;;;9.95;7.00;;;;;;;10.65;67.33;101274.72;5046809;27;102591;-51
2022/02/20 02:14:54;;;;;;;9.30;7.32;;;;;;;10.66;67.37;101268.16;5027340;27;102770;-51
2022/02/20 02:17:22;;;;;;;9.43;6.40;;;;;;;10.65;67.76;101282.06;5028890;27;102552;-52
2022/02/20 02:19:48;;;;;;;10.13;7.43;;;;;;;10.66;67.54;101286.41;5052596;27;103915;-52
2022/02/20 02:22:18;;;;;;;9.98;7.03;;;;;;;10.65;67.70;101282.88;5042526;27;102302;-51
2022/02/20 02:24:44;;;;;;;9.77;6.90;;;;;;;10.64;67.56;101286.69;5044735;27;102044;-52
2022/02/20 02:27:13;;;;;;;10.43;6.95;;;;;;;10.65;67.76;101276.59;5045993;27;102538;-51
2022/02/20 02:29:40;;;;;;;9.98;7.80;;;;;;;10.64;67.66;101270.34;5047597;27;104172;-51
2022/02/20 02:32:07;;;;;;;11.13;7.07;;;;;;;10.64;67.33;101281.25;5046065;27;102249;-51
2022/02/20 02:34:34;;;;;;;10.68;6.97;;;;;;;10.65;67.59;101276.59;5046828;27;102440;-52
2022/02/20 02:37:01;;;;;;;9.60;7.07;;;;;;;10.64;67.48;101283.97;5046557;27;102400;-51
2022/02/20 02:39:29;;;;;;;7.80;6.78;;;;;;;10.64;67.68;101281.25;5044406;27;104028;-51
2022/02/20 02:41:56;;;;;;;10.07;7.00;;;;;;;10.65;67.84;101288.31;5028947;27;102259;-51
2022/02/20 02:44:22;;;;;;;9.80;7.00;;;;;;;10.64;67.45;101302.16;5044983;27;105455;-51
2022/02/20 02:46:48;;;;;;;10.25;7.13;;;;;;;10.64;67.57;101303.00;5026140;27;102283;-51
2022/02/20 02:49:14;;;;;;;11.07;6.80;;;;;;;10.65;67.65;101320.97;5026899;27;103860;-51
2022/02/20 02:51:41;;;;;;;10.77;7.72;;;;;;;10.64;67.63;101308.47;5036216;27;103084;-52
2022/02/20 02:54:09;;;;;;;11.75;7.32;;;;;;;10.64;67.64;101305.72;5043219;27;102267;-52
2022/02/20 02:56:37;;;;;;;8.95;6.80;;;;;;;10.64;68.03;101313.91;5046177;27;102652;-51
2022/02/20 02:59:05;;;;;;;10.43;7.15;;;;;;;10.65;67.67;101314.72;5047832;27;104039;-51
2022/02/20 03:01:32;;;;;;;9.37;6.57;;;;;;;10.64;67.82;101313.91;5038377;27;102737;-51
2022/02/20 03:03:58;;;;;;;9.38;7.65;;;;;;;10.64;67.76;101313.91;5022896;27;102841;-51
2022/02/20 03:06:25;;;;;;;9.65;6.78;;;;;;;10.64;68.04;101324.78;5028758;27;102495;-51
2022/02/20 03:08:51;;;;;;;8.30;7.03;;;;;;;10.64;67.92;101324.78;5025667;27;103885;-51
2022/02/20 03:11:18;;;;;;;9.02;7.00;;;;;;;10.64;67.86;101324.78;5027545;27;103116;-51
2022/02/20 03:13:46;;;;;;;8.80;6.32;;;;;;;10.65;67.81;101325.59;5019838;27;102683;-51
2022/02/20 03:16:13;;;;;;;11.02;7.05;;;;;;;10.65;67.62;101331.06;5030427;28;102801;-51
2022/02/20 03:18:40;;;;;;;10.90;7.15;;;;;;;10.65;67.73;101331.06;5028125;27;104067;-51
2022/02/20 03:21:07;;;;;;;10.55;7.35;;;;;;;10.63;67.34;101336.72;5033388;27;102419;-51
2022/02/20 03:23:34;;;;;;;8.90;6.75;;;;;;;10.64;67.60;101346.56;5026478;27;102474;-52
2022/02/20 03:26:02;;;;;;;10.48;7.05;;;;;;;10.64;67.25;101352.00;5032492;27;102777;-51
2022/02/20 03:28:28;;;;;;;9.40;6.90;;;;;;;10.64;67.91;101357.44;5029060;27;104071;-52
2022/02/20 03:30:56;;;;;;;9.07;6.45;;;;;;;10.65;67.94;101363.72;5030688;27;102470;-51
2022/02/20 03:33:24;;;;;;;8.55;6.47;;;;;;;10.65;67.32;101367.25;5028755;27;102428;-51
2022/02/20 03:35:50;;;;;;;10.57;7.07;;;;;;;10.64;67.46;101368.34;5025170;27;102603;-52
2022/02/20 03:38:17;;;;;;;10.07;7.05;;;;;;;10.64;67.46;101368.34;5029377;27;103894;-52
2022/02/20 03:40:46;;;;;;;;;;;;;;;10.64;67.56;101373.78;5030401;27;102227;-51
2022/02/20 03:43:12;;;;;;;9.18;6.28;;;;;;;10.65;67.31;101363.72;5027688;27;102545;-52
2022/02/20 03:45:38;;;;;;;8.82;6.55;;;;;;;10.65;67.70;101363.72;5043067;27;102146;-52
2022/02/20 03:48:05;;;;;;;11.23;7.68;;;;;;;10.64;67.46;101368.34;5053370;27;104069;-52
2022/02/20 03:50:32;;;;;;;10.32;7.15;;;;;;;10.65;67.55;101375.41;5052091;27;102467;-52
2022/02/20 03:52:58;;;;;;;9.65;7.05;;;;;;;10.65;67.99;101372.69;5044591;27;102470;-51
2022/02/20 03:55:25;;;;;;;8.18;6.15;;;;;;;10.64;67.66;101371.06;5040282;27;102328;-51
2022/02/20 03:57:52;;;;;;;8.48;7.00;;;;;;;10.65;67.56;101361.00;5030927;27;103809;-51
2022/02/20 04:00:21;;;;;;;8.88;6.72;;;;;;;10.65;68.04;101367.25;5034613;27;102242;-52
2022/02/20 04:02:48;;;;;;;9.43;6.60;;;;;;;10.65;68.07;101375.41;5026883;27;102526;-51
2022/02/20 04:05:18;;;;;;;8.80;6.40;;;;;;;10.65;67.77;101380.88;5035107;27;102201;-51
2022/02/20 04:07:44;;;;;;;9.43;6.40;;;;;;;10.64;68.04;101373.78;5049544;27;103944;-52
2022/02/20 04:10:12;;;;;;;8.98;6.82;;;;;;;10.65;67.57;101378.13;5034873;27;102199;-51
2022/02/20 04:12:40;;;;;;;7.00;5.90;;;;;;;10.65;67.57;101380.88;5027457;27;102066;-51
2022/02/20 04:15:07;;;;;;;9.65;6.70;;;;;;;10.65;67.46;101380.06;5045627;27;102169;-51
2022/02/20 04:17:41;;;;;;;8.23;6.00;;;;;;;10.65;67.93;101383.59;5042456;27;104437;-51
2022/02/20 04:20:08;;;;;;;9.30;6.55;;;;;;;10.66;67.75;101387.94;5043050;27;102653;-51
2022/02/20 04:22:37;;;;;;;8.68;6.47;;;;;;;10.65;67.37;101386.31;5022798;27;102960;-51
2022/02/20 04:25:05;;;;;;;6.93;4.93;;;;;;;10.65;67.67;101397.19;5029346;27;102585;-52
2022/02/20 04:27:31;;;;;;;9.85;6.50;;;;;;;10.65;67.71;101402.63;5048331;27;103856;-52
2022/02/20 04:29:57;;;;;;;10.07;6.30;;;;;;;10.65;67.69;101404.53;5047903;27;102630;-52
2022/02/20 04:32:23;;;;;;;9.70;6.72;;;;;;;10.65;67.96;101401.81;5044775;27;102489;-52
2022/02/20 04:34:50;;;;;;;10.18;6.97;;;;;;;10.65;68.03;101408.09;5044123;27;102531;-51
2022/02/20 04:37:16;;;;;;;8.05;6.10;;;;;;;10.65;67.69;101413.53;5053102;27;104090;-52
2022/02/20 04:39:44;;;;;;;8.88;6.65;;;;;;;10.65;67.58;101418.97;5050479;27;102034;-52
2022/02/20 04:42:10;;;;;;;8.93;6.38;;;;;;;10.64;67.85;101406.44;5053579;27;102725;-52
2022/02/20 04:44:37;;;;;;;8.57;6.47;;;;;;;10.65;67.83;101416.25;5051779;27;102345;-51
2022/02/20 04:47:04;;;;;;;10.38;6.55;;;;;;;10.65;67.93;101418.97;5048465;27;103911;-52
2022/02/20 04:49:30;;;;;;;9.20;6.60;;;;;;;10.65;67.55;101421.69;5049976;27;102252;-51
2022/02/20 04:51:56;;;;;;;8.48;6.10;;;;;;;10.65;67.88;101426.31;5051949;27;103456;-51
2022/02/20 04:54:22;;;;;;;9.60;6.97;;;;;;;10.65;67.62;101435.31;5030353;27;102325;-51
2022/02/20 04:56:51;;;;;;;9.23;6.70;;;;;;;10.66;67.69;101436.13;5034948;27;104032;-51
2022/02/20 04:59:17;;;;;;;11.27;6.60;;;;;;;10.66;67.90;101441.56;5034117;27;102427;-52
2022/02/20 05:01:44;;;;;;;10.18;7.03;;;;;;;10.65;67.71;101440.75;5025926;27;102685;-52
2022/02/20 05:04:10;;;;;;;9.95;6.85;;;;;;;10.65;67.90;101437.22;5028677;27;102148;-51
2022/02/20 05:06:36;;;;;;;8.70;6.45;;;;;;;10.66;67.61;101447.84;5031498;27;103893;-52
2022/02/20 05:09:03;;;;;;;10.10;6.97;;;;;;;10.65;68.01;101446.19;5030697;27;102514;-51
2022/02/20 05:11:30;;;;;;;8.23;6.28;;;;;;;10.66;67.80;101453.28;5048139;27;102162;-51
2022/02/20 05:13:59;;;;;;;10.38;6.53;;;;;;;10.67;67.97;101460.34;5048442;27;102257;-51
2022/02/20 05:16:27;;;;;;;10.25;7.30;;;;;;;10.67;67.72;101464.97;5047021;27;103893;-52
2022/02/20 05:18:54;;;;;;;10.40;6.40;;;;;;;10.65;67.84;101457.09;5048805;27;102562;-51
2022/02/20 05:21:20;;;;;;;9.80;6.55;;;;;;;10.65;67.76;101467.97;5037460;27;105560;-52
2022/02/20 05:23:46;;;;;;;9.70;6.47;;;;;;;10.66;68.08;101464.16;5033966;27;102713;-51
2022/02/20 05:26:13;;;;;;;10.07;6.80;;;;;;;10.66;67.68;101461.44;5027774;27;103949;-52
2022/02/20 05:28:40;;;;;;;10.45;7.10;;;;;;;10.66;67.66;101464.16;5045689;27;103163;-51
2022/02/20 05:31:08;;;;;;;9.45;6.95;;;;;;;10.66;68.30;101466.88;5046261;27;102530;-52
2022/02/20 05:33:35;;;;;;;9.57;7.35;;;;;;;10.66;67.73;101469.59;5053346;27;102974;-52
2022/02/20 05:36:01;;;;;;;9.70;7.05;;;;;;;10.65;67.64;101470.69;5048172;27;103924;-52
2022/02/20 05:38:28;;;;;;;10.75;6.65;;;;;;;10.66;67.98;101472.34;5053440;27;102575;-52
2022/02/20 05:40:54;;;;;;;9.57;6.50;;;;;;;10.66;67.91;101475.06;5046191;27;102274;-51
2022/02/20 05:43:21;;;;;;;9.45;6.80;;;;;;;10.66;68.14;101463.34;5035097;27;102252;-51
2022/02/20 05:45:47;;;;;;;10.02;7.28;;;;;;;10.66;68.24;101461.44;5032706;27;103941;-51
2022/02/20 05:48:16;;;;;;;11.85;7.70;;;;;;;10.66;67.37;101472.34;5024740;27;102494;-51
2022/02/20 05:50:43;;;;;;;12.25;7.65;;;;;;;10.66;67.98;101475.06;5024266;27;102678;-51
2022/02/20 05:53:09;;;;;;;12.48;7.13;;;;;;;10.66;67.80;101468.78;5029528;27;102176;-52
2022/02/20 05:55:37;;;;;;;10.43;7.93;;;;;;;10.66;67.75;101460.63;5031745;27;104096;-51
2022/02/20 05:58:03;;;;;;;11.30;6.95;;;;;;;10.66;67.83;101469.59;5049063;27;102405;-51
2022/02/20 06:00:30;;;;;;;13.30;7.38;;;;;;;10.67;68.23;101475.88;5036846;27;103327;-52
2022/02/20 06:03:00;;;;;;;12.73;7.95;;;;;;;10.65;67.74;101459.81;5027816;27;102527;-52
2022/02/20 06:05:28;;;;;;;11.65;7.03;;;;;;;10.66;67.92;101469.59;5033136;27;103703;-52
2022/02/20 06:07:55;;;;;;;9.93;7.47;;;;;;;10.66;67.79;101464.16;5045489;27;102312;-51
2022/02/20 06:10:22;;;;;;;11.43;7.07;;;;;;;10.65;68.36;101473.41;5044727;27;103038;-51
2022/02/20 06:12:49;;;;;;;9.43;7.57;;;;;;;10.65;67.92;101473.41;5045804;27;102764;-51
2022/02/20 06:15:15;;;;;;;10.32;7.43;;;;;;;10.65;67.88;101473.41;5034376;27;103904;-52
2022/02/20 06:17:43;;;;;;;10.35;6.85;;;;;;;10.67;68.06;101481.31;5027180;27;102315;-51
2022/02/20 06:20:10;;;;;;;10.27;7.15;;;;;;;10.66;67.63;101477.78;5034562;27;102601;-51
2022/02/20 06:22:38;;;;;;;10.32;7.07;;;;;;;10.67;67.83;101475.88;5030996;27;102429;-51
2022/02/20 06:25:05;;;;;;;10.77;7.55;;;;;;;10.67;68.03;101478.59;5027240;27;104243;-51
2022/02/20 06:27:31;;;;;;;12.07;7.57;;;;;;;10.66;67.86;101469.59;5019341;27;102115;-52
2022/02/20 06:29:58;;;;;;;9.45;6.88;;;;;;;10.66;67.66;101468.78;5022388;27;102989;-51
2022/02/20 06:32:24;;;;;;;12.15;7.85;;;;;;;10.66;67.71;101475.06;5014404;27;106672;-52
2022/02/20 06:34:52;;;;;;;10.48;6.75;;;;;;;10.66;67.87;101472.34;5020735;27;104043;-51
2022/02/20 06:37:18;;;;;;;12.93;7.28;;;;;;;10.67;68.01;101465.81;5016326;27;104144;-51
2022/02/20 06:39:49;;;;;;;9.45;7.20;;;;;;;10.67;67.70;101470.44;5022779;27;102164;-52
2022/02/20 06:42:16;;;;;;;12.85;7.55;;;;;;;10.66;67.89;101466.88;5022167;27;102542;-52
2022/02/20 06:44:43;;;;;;;9.65;6.70;;;;;;;10.66;68.39;101461.44;5019443;27;104799;-51
2022/02/20 06:47:09;;;;;;;8.77;6.82;;;;;;;10.67;67.80;101463.06;5020823;27;102141;-52
2022/02/20 06:49:35;;;;;;;11.80;7.05;;;;;;;10.68;68.08;101462.03;5018601;27;102329;-51
2022/02/20 06:52:02;;;;;;;10.65;7.13;;;;;;;10.67;67.85;101465.81;5023833;27;102575;-52
2022/02/20 06:54:29;;;;;;;10.77;6.70;;;;;;;10.67;68.23;101465.81;5026026;27;103916;-52
2022/02/20 06:56:57;;;;;;;10.18;7.38;;;;;;;10.68;68.10;101467.47;5025960;27;102104;-51
2022/02/20 06:59:24;;;;;;;11.30;7.38;;;;;;;10.67;68.42;101468.53;5038367;27;102496;-52
2022/02/20 07:01:51;;;;;;;10.60;7.15;;;;;;;10.68;67.97;101467.47;5033348;27;103322;-52
2022/02/20 07:04:18;;;;;;;9.68;7.07;;;;;;;10.68;67.76;101466.66;5037968;27;106394;-51
2022/02/20 07:06:44;;;;;;;9.82;6.90;;;;;;;10.68;67.84;101461.22;5030112;27;102650;-51
2022/02/20 07:09:11;;;;;;;10.60;7.22;;;;;;;10.69;68.19;101460.94;5032909;27;102747;-51
2022/02/20 07:11:39;;;;;;;11.82;6.97;;;;;;;10.69;68.17;101457.41;5026324;27;102374;-52
2022/02/20 07:14:07;;;;;;;9.30;6.45;;;;;;;10.69;67.86;101449.22;5017459;27;104369;-51
2022/02/20 07:16:34;;;;;;;9.97;7.00;;;;;;;10.69;68.06;101458.22;5024080;27;102225;-52
2022/02/20 07:19:02;;;;;;;8.93;6.22;;;;;;;10.69;68.25;101452.78;5016446;27;102342;-51
2022/02/20 07:21:29;;;;;;;9.00;6.97;;;;;;;10.70;68.12;101454.41;5051277;27;102858;-51
2022/02/20 07:23:58;;;;;;;11.70;6.68;;;;;;;10.70;67.83;101445.44;5030983;27;104192;-52
2022/02/20 07:26:28;;;;;;;12.25;7.22;;;;;;;10.69;67.87;101441.06;5030472;27;102817;-51
2022/02/20 07:28:55;;;;;;;10.15;6.60;;;;;;;10.69;68.09;101441.88;5047560;27;103328;-52
2022/02/20 07:31:23;;;;;;;10.60;7.22;;;;;;;10.70;68.13;101448.97;5032381;27;103539;-52
2022/02/20 07:33:53;;;;;;;11.48;7.43;;;;;;;10.70;67.91;101446.25;5043749;27;103638;-52
2022/02/20 07:36:20;;;;;;;11.82;7.03;;;;;;;10.70;67.81;101448.16;5045431;27;102233;-51
2022/02/20 07:38:46;;;;;;;9.82;6.70;;;;;;;10.70;68.20;101445.44;5031305;27;103241;-52
2022/02/20 07:41:12;;;;;;;9.07;6.45;;;;;;;10.70;67.88;101440.81;5046400;27;102209;-51
2022/02/20 07:43:39;;;;;;;9.98;7.30;;;;;;;10.70;68.21;101440.81;5030543;27;103923;-52
2022/02/20 07:46:05;;;;;;;11.85;7.45;;;;;;;10.70;67.80;101443.53;5049580;27;102650;-52
2022/02/20 07:48:35;;;;;;;10.07;6.93;;;;;;;10.70;67.76;101442.69;5019683;27;102377;-51
2022/02/20 07:51:01;;;;;;;11.02;6.55;;;;;;;10.70;67.98;101448.97;5030921;27;102251;-52
2022/02/20 07:53:27;;;;;;;9.05;7.00;;;;;;;10.70;68.21;101443.53;5029985;28;104075;-51
2022/02/20 07:55:54;;;;;;;11.30;6.90;;;;;;;10.70;67.82;101448.16;5031334;27;102667;-51
2022/02/20 07:58:20;;;;;;;9.30;7.03;;;;;;;10.70;67.83;101437.25;5032761;27;102349;-51
2022/02/20 08:00:46;;;;;;;9.50;6.80;;;;;;;10.70;68.05;101438.06;5051085;27;102288;-51
2022/02/20 08:03:13;;;;;;;9.63;7.30;;;;;;;10.70;67.83;101448.16;5046498;27;103961;-51
2022/02/20 08:05:41;;;;;;;8.30;6.50;;;;;;;10.70;67.73;101457.13;5027058;27;102297;-51
2022/02/20 08:08:08;;;;;;;8.85;6.68;;;;;;;10.71;67.94;101449.78;5032632;27;101976;-51
2022/02/20 08:10:34;;;;;;;8.95;6.47;;;;;;;10.70;67.98;101448.97;5047186;27;102526;-51
2022/02/20 08:13:01;;;;;;;9.75;6.45;;;;;;;10.70;67.66;101440.81;5025895;27;104095;-51
2022/02/20 08:15:27;;;;;;;9.32;6.63;;;;;;;10.70;68.15;101448.97;5034750;27;102698;-51
2022/02/20 08:17:54;;;;;;;10.82;6.97;;;;;;;10.70;67.64;101440.81;5043793;27;102422;-52
2022/02/20 08:20:20;;;;;;;9.07;6.78;;;;;;;10.71;68.00;101438.91;5024350;27;102381;-52
2022/02/20 08:22:49;;;;;;;10.68;7.20;;;;;;;10.71;68.22;101438.91;5035298;27;103875;-52
2022/02/20 08:25:15;;;;;;;8.25;6.28;;;;;;;10.71;67.82;101450.63;5038485;27;102414;-52
2022/02/20 08:27:42;;;;;;;9.68;6.65;;;;;;;10.70;68.18;101443.53;5044876;27;102587;-52
2022/02/20 08:30:10;;;;;;;9.70;6.82;;;;;;;10.71;67.69;101444.34;5029507;27;102821;-54
2022/02/20 08:32:38;;;;;;;8.40;6.32;;;;;;;10.71;68.28;101444.34;5032752;27;103736;-52
2022/02/20 08:35:08;;;;;;;8.18;6.35;;;;;;;10.70;68.12;101448.97;5030684;27;102374;-52
2022/02/20 08:37:36;;;;;;;8.25;6.10;;;;;;;10.71;68.15;101438.91;5029370;27;102527;-52
2022/02/20 08:40:05;;;;;;;8.82;6.60;;;;;;;10.70;67.66;101435.34;5034432;27;102216;-51
2022/02/20 08:42:31;;;;;;;;;;;;;;;10.71;67.82;101438.91;5023649;27;103958;-51
2022/02/20 08:44:57;;;;;;;8.82;5.60;;;;;;;10.71;67.95;101438.91;5032599;27;102753;-51
2022/02/20 08:47:23;;;;;;;8.80;6.22;;;;;;;10.71;67.67;101444.34;5025043;27;102682;-51
2022/02/20 08:49:50;;;;;;;8.48;6.38;;;;;;;10.71;67.85;101439.75;5032275;27;102474;-51
2022/02/20 08:52:16;;;;;;;11.20;6.82;;;;;;;10.71;68.43;101436.16;5031756;27;103121;-51
2022/02/20 08:54:43;;;;;;;9.05;6.20;;;;;;;10.72;67.70;101435.13;5027835;27;102271;-52
2022/02/20 08:57:10;;;;;;;9.80;6.35;;;;;;;10.70;67.93;101427.19;5027677;27;102403;-52
2022/02/20 08:59:37;;;;;;;7.97;6.50;;;;;;;10.71;67.85;101422.56;5024414;27;102467;-51
2022/02/20 09:02:04;;;;;;;9.80;6.10;;;;;;;10.72;67.87;101425.03;5028807;27;103947;-51
2022/02/20 09:04:31;;;;;;;8.95;5.75;;;;;;;10.71;67.82;101428.00;5025180;27;102821;-52
2022/02/20 09:06:57;;;;;;;11.25;6.97;;;;;;;10.72;68.19;101421.50;5007864;28;102238;-51
2022/02/20 09:09:24;;;;;;;8.77;6.63;;;;;;;10.71;68.03;101417.97;5019862;27;102505;-51
2022/02/20 09:11:52;;;;;;;8.63;6.18;;;;;;;10.71;67.91;101417.97;5020188;27;103809;-51
2022/02/20 09:14:20;;;;;;;8.35;5.43;;;;;;;10.72;67.80;101419.59;5029088;27;102198;-52
2022/02/20 09:16:46;;;;;;;9.43;6.43;;;;;;;10.72;67.68;101414.16;5016616;27;102345;-52
2022/02/20 09:19:13;;;;;;;9.50;5.95;;;;;;;10.72;67.71;101414.16;5021485;27;102441;-52
2022/02/20 09:21:39;;;;;;;9.13;6.03;;;;;;;10.72;68.08;101413.34;5028674;27;104079;-52
2022/02/20 09:24:06;;;;;;;7.82;5.80;;;;;;;10.72;67.57;101397.81;5034905;27;102456;-51
2022/02/20 09:26:32;;;;;;;8.80;5.78;;;;;;;10.72;67.71;101397.81;5034352;27;102291;-51
2022/02/20 09:28:59;;;;;;;7.80;5.88;;;;;;;10.72;67.71;101397.00;5035632;27;102653;-51
2022/02/20 09:31:27;;;;;;;10.13;6.40;;;;;;;10.72;67.56;101397.81;5026937;27;103884;-51
2022/02/20 09:33:53;;;;;;;8.95;6.03;;;;;;;10.72;67.10;101392.38;5010145;28;102537;-51
2022/02/20 09:36:19;;;;;;;6.85;5.47;;;;;;;10.72;67.15;101391.56;5001882;28;102512;-52
2022/02/20 09:38:46;;;;;;;9.40;5.90;;;;;;;10.70;66.86;101383.63;5023859;27;102410;-51
2022/02/20 09:41:13;;;;;;;8.23;6.00;;;;;;;10.71;66.29;101388.03;5028153;27;104267;-51
2022/02/20 09:43:40;;;;;;;7.55;5.25;;;;;;;10.70;66.79;101380.91;5029777;27;102164;-53
2022/02/20 09:46:07;;;;;;;8.20;6.15;;;;;;;10.71;66.80;101379.00;5036503;27;102479;-52
2022/02/20 09:48:36;;;;;;;8.32;5.90;;;;;;;10.70;66.59;101383.63;5031637;27;102223;-52
2022/02/20 09:51:02;;;;;;;8.15;5.70;;;;;;;10.70;66.69;101383.63;5032902;27;103870;-51
2022/02/20 09:53:33;;;;;;;10.57;5.95;;;;;;;10.70;66.90;101378.19;5034296;27;102228;-53
2022/02/20 09:56:00;;;;;;;7.82;5.50;;;;;;;10.71;66.73;101379.00;5021927;27;102145;-52
2022/02/20 09:58:26;;;;;;;8.93;5.38;;;;;;;10.71;67.09;101374.41;5029608;27;102668;-51
2022/02/20 10:00:54;;;;;;;9.07;5.78;;;;;;;10.72;67.03;101370.59;5034248;27;103945;-51
2022/02/20 10:03:30;;;;;;;7.27;5.10;;;;;;;10.72;67.54;101365.16;5011487;27;102146;-52
2022/02/20 10:05:58;;;;;;;8.20;5.28;;;;;;;10.71;66.92;101354.50;5008705;27;102390;-51
2022/02/20 10:08:25;;;;;;;8.27;5.40;;;;;;;10.72;66.65;101356.97;5029062;27;102359;-51
2022/02/20 10:10:51;;;;;;;7.93;5.15;;;;;;;10.72;66.49;101359.72;5016645;27;104168;-51
2022/02/20 10:13:26;;;;;;;6.97;4.95;;;;;;;10.72;66.51;101356.97;5020834;27;102104;-52
2022/02/20 10:15:54;;;;;;;8.80;5.68;;;;;;;10.73;65.88;101360.53;5000286;27;102067;-52
2022/02/20 10:18:21;;;;;;;7.82;5.03;;;;;;;10.72;65.66;101359.72;5018801;27;102669;-52
2022/02/20 10:20:58;;;;;;;8.77;5.63;;;;;;;10.72;65.61;101348.81;5019488;27;104127;-52
2022/02/20 10:23:36;;;;;;;7.40;5.38;;;;;;;10.71;65.41;101347.19;5020978;27;102758;-55
2022/02/20 10:26:11;;;;;;;9.23;5.10;;;;;;;10.71;65.61;101341.75;5015210;27;102866;-52
2022/02/20 10:28:59;;;;;;;8.50;5.30;;;;;;;10.71;65.74;101347.19;4999196;27;102634;-53
2022/02/20 10:31:40;;;;;;;7.95;4.75;;;;;;;10.71;65.78;101338.16;4999080;28;104051;-52
2022/02/20 10:34:08;;;;;;;8.30;5.15;;;;;;;10.71;65.23;101341.75;5004243;28;102519;-52
2022/02/20 10:36:53;;;;;;;13.57;5.45;;;;;;;10.72;66.05;101331.66;5014850;27;105829;-52
2022/02/20 10:39:23;;;;;;;7.25;5.15;;;;;;;10.71;65.19;101328.13;5016443;27;103052;-52
2022/02/20 10:41:50;;;;;;;9.15;5.50;;;;;;;10.72;64.92;101315.34;5022733;27;103936;-52
2022/02/20 10:44:17;;;;;;;7.50;4.80;;;;;;;10.72;64.61;101316.16;5048605;27;102523;-52
2022/02/20 10:46:46;;;;;;;6.55;4.53;;;;;;;10.72;64.63;101320.78;5030087;27;102327;-52
2022/02/20 10:49:25;;;;;;;7.88;4.80;;;;;;;10.71;65.16;101311.78;5028601;27;102979;-52
2022/02/20 10:51:53;;;;;;;9.95;4.68;;;;;;;10.72;65.01;101309.88;5038026;27;103963;-52
2022/02/20 10:54:21;;;;;;;8.52;5.15;;;;;;;10.72;64.70;101310.72;5026356;27;102713;-52
2022/02/20 10:56:47;;;;;;;8.40;4.57;;;;;;;10.71;63.98;101310.94;5024908;27;102265;-52
2022/02/20 10:59:14;;;;;;;8.07;4.63;;;;;;;10.71;64.25;101313.66;5036086;27;102553;-52
2022/02/20 11:01:41;;;;;;;11.00;4.60;;;;;;;10.72;64.22;101309.88;5036765;27;103943;-52
2022/02/20 11:04:10;;;;;;;7.28;4.50;;;;;;;10.71;64.62;101298.19;5046446;27;102591;-53
2022/02/20 11:06:37;;;;;;;7.57;4.72;;;;;;;10.72;64.42;101297.09;5045362;27;102793;-52
2022/02/20 11:09:07;;;;;;;6.13;4.70;;;;;;;10.72;65.02;101293.56;5059572;27;102775;-52
2022/02/20 11:11:38;;;;;;;9.60;4.82;;;;;;;10.71;65.13;101281.84;5052289;27;104112;-52
2022/02/20 11:14:09;;;;;;;8.95;5.15;;;;;;;10.71;64.87;101276.41;5043615;27;102200;-52